Time;durP1;ratioP1;P1;durP2;ratioP2;P2;SDS_P1;SDS_P2;PMS_P1;PMS_P2;Temp;Humidity;BMP_temperature;BMP_pressure;BME280_temperature;BME280_humidity;BME280_pressure;Samples;Min_cycle;Max_cycle;Signal;HPM_P1;HPM_P2
2022/01/17 05:01:33;;;;;;;26.97;19.50;;;3.80;99.90;;;;;;5507073;23;20492;-66
2022/01/17 05:04:00;;;;;;;28.30;21.07;;;3.70;99.90;;;;;;5014754;28;20953;-66
2022/01/17 05:06:28;;;;;;;27.70;20.17;;;3.70;99.90;;;;;;5014672;28;20449;-66
2022/01/17 05:08:55;;;;;;;25.70;19.27;;;3.80;99.90;;;;;;5014900;28;20478;-66
2022/01/17 05:11:24;;;;;;;29.53;21.10;;;3.80;99.90;;;;;;5014704;28;20484;-66
2022/01/17 05:13:51;;;;;;;25.10;19.43;;;3.80;99.90;;;;;;5014806;28;20832;-66
2022/01/17 05:16:20;;;;;;;23.80;17.90;;;3.80;99.90;;;;;;5014635;28;20449;-66
2022/01/17 05:21:32;;;;;;;27.83;18.23;;;3.90;99.90;;;;;;5014801;28;20528;-66
2022/01/17 05:23:59;;;;;;;24.03;18.60;;;3.80;99.90;;;;;;5014565;28;20457;-66
2022/01/17 05:26:26;;;;;;;22.03;17.13;;;3.80;99.90;;;;;;5014463;28;20476;-65
2022/01/17 05:28:53;;;;;;;22.23;17.00;;;3.80;99.90;;;;;;5014688;28;20453;-65
2022/01/17 05:31:20;;;;;;;23.60;16.20;;;3.80;99.90;;;;;;5014657;28;20477;-65
2022/01/17 05:33:48;;;;;;;23.37;16.17;;;3.80;99.90;;;;;;5014569;28;20465;-67
2022/01/17 05:36:14;;;;;;;22.63;16.30;;;3.80;99.90;;;;;;5014596;28;20455;-68
2022/01/17 05:38:41;;;;;;;21.40;16.70;;;3.80;99.90;;;;;;5014688;28;20472;-66
2022/01/17 05:41:08;;;;;;;19.23;15.00;;;3.80;99.90;;;;;;5014766;28;20484;-66
2022/01/17 05:43:35;;;;;;;20.93;16.00;;;3.80;99.90;;;;;;5014634;28;20465;-66
2022/01/17 05:46:02;;;;;;;18.97;15.10;;;3.90;99.90;;;;;;5014828;28;20861;-67
2022/01/17 05:48:28;;;;;;;20.00;14.63;;;4.00;99.90;;;;;;5016559;28;20460;-66
2022/01/17 05:50:56;;;;;;;18.17;15.37;;;4.00;99.90;;;;;;5018410;28;20508;-66
2022/01/17 05:53:23;;;;;;;19.80;14.93;;;4.00;99.90;;;;;;5018289;28;20461;-66
2022/01/17 05:55:50;;;;;;;16.00;12.80;;;4.10;99.90;;;;;;5018502;28;20453;-67
2022/01/17 05:58:16;;;;;;;17.23;13.50;;;4.00;99.90;;;;;;5018468;28;20453;-67
2022/01/17 06:00:43;;;;;;;17.70;14.60;;;4.00;99.90;;;;;;5018871;28;20484;-67
2022/01/17 06:03:10;;;;;;;18.50;14.17;;;4.00;99.90;;;;;;5021672;28;20437;-67
2022/01/17 06:05:36;;;;;;;18.13;13.77;;;4.10;99.90;;;;;;5020260;28;20527;-67
2022/01/17 06:08:05;;;;;;;16.27;13.97;;;4.10;99.90;;;;;;5018130;28;20460;-67
2022/01/17 06:10:32;;;;;;;16.20;13.40;;;4.10;99.90;;;;;;5018159;28;20539;-67
2022/01/17 06:12:58;;;;;;;16.17;14.03;;;4.20;99.90;;;;;;5018002;28;20807;-67
2022/01/17 06:15:25;;;;;;;17.10;12.70;;;4.20;99.90;;;;;;5018559;28;20453;-67
2022/01/17 06:17:52;;;;;;;16.00;13.07;;;4.20;99.90;;;;;;5018327;28;20461;-67
2022/01/17 06:20:18;;;;;;;13.87;11.70;;;4.30;99.90;;;;;;5019086;28;20481;-66
2022/01/17 06:22:45;;;;;;;14.70;12.03;;;4.30;99.90;;;;;;5019235;28;20453;-67
2022/01/17 06:25:14;;;;;;;17.30;13.23;;;4.30;99.90;;;;;;5019720;28;20459;-67
2022/01/17 06:27:40;;;;;;;13.80;12.00;;;4.30;99.90;;;;;;5018956;28;20453;-67
2022/01/17 06:30:08;;;;;;;14.80;11.23;;;4.40;99.90;;;;;;5017995;28;20453;-67
2022/01/17 06:32:35;;;;;;;14.90;10.83;;;4.30;99.90;;;;;;5018385;28;20453;-68
2022/01/17 06:35:03;;;;;;;13.43;10.93;;;4.40;99.90;;;;;;5018489;28;20449;-67
2022/01/17 06:37:30;;;;;;;18.43;10.70;;;4.40;99.90;;;;;;5018197;28;20458;-66
2022/01/17 06:39:57;;;;;;;15.77;11.67;;;4.40;99.90;;;;;;5018240;28;20500;-66
2022/01/17 06:42:25;;;;;;;13.87;11.87;;;4.40;99.90;;;;;;5018063;28;20476;-67
2022/01/17 06:44:54;;;;;;;13.97;11.73;;;4.40;99.90;;;;;;5018050;28;20513;-66
2022/01/17 06:47:21;;;;;;;14.00;12.00;;;4.50;99.90;;;;;;5018144;28;20453;-67
2022/01/17 06:49:48;;;;;;;15.57;11.73;;;4.40;99.90;;;;;;5017679;28;20823;-66
2022/01/17 06:52:15;;;;;;;13.80;11.63;;;4.50;99.90;;;;;;5018131;28;20479;-67
2022/01/17 06:54:42;;;;;;;16.07;10.80;;;4.50;99.90;;;;;;5018816;28;20520;-67
2022/01/17 06:57:09;;;;;;;13.90;11.37;;;4.50;99.90;;;;;;5017823;28;20507;-67
2022/01/17 06:59:37;;;;;;;14.20;10.70;;;4.50;99.90;;;;;;5016890;28;20480;-67
2022/01/17 07:02:04;;;;;;;12.83;11.33;;;4.50;99.90;;;;;;5017717;28;20485;-67
2022/01/17 07:04:31;;;;;;;13.60;11.13;;;4.60;99.90;;;;;;5017520;28;20438;-67
2022/01/17 07:06:58;;;;;;;13.57;11.40;;;4.60;99.90;;;;;;5017590;28;20453;-65
2022/01/17 07:09:24;;;;;;;12.07;10.90;;;4.60;99.90;;;;;;5016992;28;20450;-67
2022/01/17 07:11:51;;;;;;;16.03;12.23;;;4.60;99.90;;;;;;5017337;28;21004;-67
2022/01/17 07:14:18;;;;;;;14.33;11.27;;;4.50;99.90;;;;;;5017249;28;20453;-67
2022/01/17 07:16:46;;;;;;;14.40;11.83;;;4.50;99.90;;;;;;5017064;28;20453;-67
2022/01/17 07:19:13;;;;;;;13.57;11.20;;;4.50;99.90;;;;;;5018054;28;20473;-67
2022/01/17 07:21:40;;;;;;;12.40;10.60;;;4.50;99.90;;;;;;5018969;28;20505;-67
2022/01/17 07:24:07;;;;;;;13.10;11.70;;;4.50;99.90;;;;;;5019075;28;20441;-66
2022/01/17 07:26:33;;;;;;;12.63;11.30;;;4.50;99.90;;;;;;5018506;28;20465;-67
2022/01/17 07:29:01;;;;;;;13.47;11.60;;;4.50;99.90;;;;;;5018666;28;20507;-66
2022/01/17 07:31:28;;;;;;;14.43;11.20;;;4.50;99.90;;;;;;5017499;28;20976;-68
2022/01/17 07:33:56;;;;;;;12.23;10.87;;;4.60;99.90;;;;;;5016948;28;20465;-66
2022/01/17 07:36:22;;;;;;;14.60;12.13;;;4.60;99.90;;;;;;5024731;28;20933;-66
2022/01/17 07:38:49;;;;;;;13.83;11.90;;;4.60;99.90;;;;;;5016727;28;20449;-67
2022/01/17 07:41:16;;;;;;;12.87;10.80;;;4.70;99.90;;;;;;5016934;28;20485;-66
2022/01/17 07:43:44;;;;;;;15.77;10.57;;;4.80;99.90;;;;;;5017145;28;20510;-68
2022/01/17 07:46:19;;;;;;;14.60;11.87;;;4.80;99.90;;;;;;5018669;28;20488;-67
2022/01/17 07:49:03;;;;;;;13.00;10.33;;;4.80;99.90;;;;;;5016721;28;20536;-66
2022/01/17 07:51:32;;;;;;;13.67;10.40;;;4.90;99.90;;;;;;5016280;28;20568;-67
2022/01/17 07:53:59;;;;;;;12.37;10.80;;;4.90;99.90;;;;;;5018376;28;20462;-67
2022/01/17 07:56:26;;;;;;;11.60;10.40;;;4.90;99.90;;;;;;5016500;28;20457;-67
2022/01/17 07:58:53;;;;;;;12.30;10.93;;;5.00;99.90;;;;;;5016442;28;20461;-66
2022/01/17 08:01:20;;;;;;;12.07;10.80;;;5.00;99.90;;;;;;5016728;28;20492;-67
2022/01/17 08:03:47;;;;;;;11.70;10.10;;;5.00;99.90;;;;;;5017845;28;20500;-66
2022/01/17 08:06:14;;;;;;;11.97;10.73;;;5.10;99.90;;;;;;5018636;28;20457;-66
2022/01/17 08:08:42;;;;;;;13.77;10.70;;;5.00;99.90;;;;;;5016959;28;20456;-66
2022/01/17 08:11:09;;;;;;;13.07;10.40;;;5.00;99.90;;;;;;5016835;28;20465;-66
2022/01/17 08:13:36;;;;;;;10.17;8.97;;;5.10;99.90;;;;;;5017728;28;20450;-67
2022/01/17 08:16:03;;;;;;;10.60;9.10;;;5.00;99.90;;;;;;5017404;28;20453;-67
2022/01/17 08:18:30;;;;;;;13.80;10.50;;;5.00;99.90;;;;;;5017678;28;20453;-65
2022/01/17 08:20:58;;;;;;;10.63;9.40;;;5.10;99.90;;;;;;5019283;28;20485;-67
2022/01/17 08:23:25;;;;;;;9.63;8.60;;;5.00;99.90;;;;;;5018855;28;20457;-67
2022/01/17 08:25:53;;;;;;;10.70;9.13;;;5.00;99.90;;;;;;5019443;28;20458;-66
2022/01/17 08:28:20;;;;;;;10.50;9.40;;;5.10;99.90;;;;;;5020502;28;20464;-67
2022/01/17 08:30:47;;;;;;;9.77;8.80;;;5.10;99.90;;;;;;5018731;28;20497;-66
2022/01/17 08:33:13;;;;;;;10.97;9.20;;;5.20;99.90;;;;;;5015011;28;20465;-66
2022/01/17 08:35:40;;;;;;;10.50;9.00;;;5.30;99.90;;;;;;5014709;28;20457;-66
2022/01/17 08:38:07;;;;;;;9.37;8.40;;;5.30;99.90;;;;;;5014853;28;20465;-66
2022/01/17 08:40:34;;;;;;;10.23;9.13;;;5.30;99.90;;;;;;5014714;28;20481;-66
2022/01/17 08:43:02;;;;;;;9.80;8.50;;;5.50;99.90;;;;;;5014919;28;20477;-66
2022/01/17 08:45:29;;;;;;;9.87;8.63;;;5.70;99.90;;;;;;5014712;28;20461;-67
2022/01/17 08:47:56;;;;;;;10.73;9.23;;;5.80;99.90;;;;;;5014735;28;20485;-67
2022/01/17 08:50:24;;;;;;;10.90;9.20;;;5.80;99.90;;;;;;5014922;28;20873;-66
2022/01/17 08:52:50;;;;;;;10.40;8.77;;;5.80;99.90;;;;;;5014646;28;20461;-66
2022/01/17 08:55:18;;;;;;;11.10;8.57;;;5.90;99.90;;;;;;5014482;28;20445;-66
2022/01/17 08:57:45;;;;;;;9.53;8.53;;;5.90;99.90;;;;;;5014338;28;20466;-66
2022/01/17 09:00:16;;;;;;;9.60;8.37;;;5.90;99.90;;;;;;5014550;28;20477;-66
2022/01/17 09:02:43;;;;;;;10.13;9.13;;;5.90;99.90;;;;;;5014563;28;20909;-66
2022/01/17 09:05:10;;;;;;;10.13;9.13;;;5.90;99.90;;;;;;5014002;28;20817;-66
2022/01/17 09:07:38;;;;;;;11.90;9.33;;;6.00;99.90;;;;;;5018093;28;20453;-66
2022/01/17 09:10:06;;;;;;;9.27;8.37;;;6.10;99.90;;;;;;5016568;28;20452;-66
2022/01/17 09:12:32;;;;;;;9.67;8.60;;;6.00;99.90;;;;;;5014358;28;20473;-66
2022/01/17 09:15:00;;;;;;;12.83;9.27;;;6.10;99.90;;;;;;5014701;28;20453;-66
2022/01/17 09:17:28;;;;;;;10.90;9.13;;;6.20;99.90;;;;;;5014400;28;20449;-66
2022/01/17 09:19:55;;;;;;;9.10;8.13;;;6.30;99.90;;;;;;5014470;28;20481;-66
2022/01/17 09:22:21;;;;;;;10.00;8.43;;;6.40;99.90;;;;;;5013914;28;20477;-66
2022/01/17 09:24:48;;;;;;;9.80;8.60;;;6.50;99.90;;;;;;5014235;28;20843;-66
2022/01/17 09:27:16;;;;;;;11.20;9.30;;;6.60;99.90;;;;;;5014333;28;20458;-67
2022/01/17 09:29:43;;;;;;;10.50;9.27;;;6.60;99.90;;;;;;5014664;28;20438;-66
2022/01/17 09:32:10;;;;;;;10.07;8.80;;;6.60;99.90;;;;;;5014488;28;20473;-65
2022/01/17 09:34:38;;;;;;;10.90;9.20;;;6.70;99.90;;;;;;5014463;28;20456;-66
2022/01/17 09:37:05;;;;;;;12.40;9.10;;;6.60;99.90;;;;;;5014424;28;20924;-66
2022/01/17 09:39:31;;;;;;;9.63;8.63;;;6.60;99.90;;;;;;5014511;28;20453;-65
2022/01/17 09:41:58;;;;;;;10.07;8.80;;;6.60;99.90;;;;;;5014140;28;20473;-66
2022/01/17 09:44:25;;;;;;;8.97;8.10;;;6.50;99.90;;;;;;5014450;28;20461;-66
2022/01/17 09:46:54;;;;;;;8.60;7.70;;;6.50;99.90;;;;;;5014218;28;20454;-66
2022/01/17 09:49:25;;;;;;;8.63;7.47;;;6.40;99.90;;;;;;5013996;28;20453;-66
2022/01/17 09:52:25;;;;;;;9.17;8.30;;;6.40;99.90;;;;;;5014299;28;20494;-66
2022/01/17 09:54:53;;;;;;;7.97;7.23;;;6.40;99.90;;;;;;5016678;28;20463;-66
2022/01/17 09:57:21;;;;;;;8.20;7.20;;;6.50;99.90;;;;;;5016233;28;20523;-67
2022/01/17 09:59:48;;;;;;;9.03;7.57;;;6.50;99.90;;;;;;5018152;28;20477;-67
2022/01/17 10:02:16;;;;;;;9.00;8.20;;;6.50;99.90;;;;;;5015993;28;20481;-67
2022/01/17 10:04:43;;;;;;;8.70;8.00;;;6.60;99.90;;;;;;5014682;28;20804;-67
2022/01/17 10:07:11;;;;;;;7.93;7.07;;;6.60;99.90;;;;;;5014613;28;20468;-67
2022/01/17 10:09:41;;;;;;;7.50;6.40;;;6.60;99.90;;;;;;5014397;28;20488;-67
2022/01/17 10:12:10;;;;;;;9.37;7.27;;;6.60;99.90;;;;;;5013394;28;20992;-67
2022/01/17 10:14:40;;;;;;;7.80;7.00;;;6.60;99.90;;;;;;5014224;28;20454;-66
2022/01/17 10:17:09;;;;;;;8.30;7.50;;;6.60;99.90;;;;;;5013862;28;20457;-66
2022/01/17 10:19:36;;;;;;;8.03;7.33;;;6.70;99.90;;;;;;5013986;28;20458;-67
2022/01/17 10:22:10;;;;;;;8.43;7.73;;;6.60;99.90;;;;;;5014105;28;20465;-67
2022/01/17 10:24:48;;;;;;;8.67;7.77;;;6.60;99.90;;;;;;5014222;28;20445;-67
2022/01/17 10:27:49;;;;;;;9.20;7.03;;;6.70;99.90;;;;;;5014209;28;20439;-67
2022/01/17 10:35:57;;;;;;;9.30;8.37;;;6.80;99.90;;;;;;5017933;28;20790;-66
2022/01/17 10:38:27;;;;;;;8.63;7.40;;;6.40;99.90;;;;;;5018522;28;20452;-67
2022/01/17 10:40:58;;;;;;;8.00;7.20;;;6.50;99.90;;;;;;5019004;28;20544;-67
2022/01/17 10:43:33;;;;;;;8.13;7.00;;;6.40;99.90;;;;;;5017353;28;20439;-67
2022/01/17 10:45:59;;;;;;;8.43;7.60;;;6.50;99.90;;;;;;5017946;28;20437;-67
2022/01/17 10:48:31;;;;;;;8.47;7.57;;;6.40;99.90;;;;;;5017258;28;20453;-68
2022/01/17 10:50:58;;;;;;;7.97;7.17;;;6.40;99.90;;;;;;5017075;28;20974;-67
2022/01/17 10:53:25;;;;;;;9.03;7.40;;;6.30;99.90;;;;;;5017510;28;20468;-67
2022/01/17 10:55:56;;;;;;;8.53;7.73;;;6.30;99.90;;;;;;5017023;28;20450;-67
2022/01/17 10:58:25;;;;;;;8.37;7.50;;;6.30;99.90;;;;;;5016843;28;20438;-66
2022/01/17 11:00:54;;;;;;;8.20;7.33;;;6.20;99.90;;;;;;5016808;28;20936;-67
2022/01/17 11:03:23;;;;;;;8.03;7.30;;;6.10;99.90;;;;;;5017513;28;20480;-67
2022/01/17 11:05:53;;;;;;;8.50;7.70;;;6.00;99.90;;;;;;5016590;28;20464;-67
2022/01/17 11:08:21;;;;;;;7.27;6.57;;;6.00;99.90;;;;;;5017982;28;20453;-67
2022/01/17 11:10:52;;;;;;;8.93;8.13;;;6.00;99.90;;;;;;5016808;28;20992;-67
2022/01/17 11:13:25;;;;;;;8.23;7.50;;;5.90;99.90;;;;;;5016820;28;20442;-67
2022/01/17 11:15:54;;;;;;;8.70;7.80;;;5.90;99.90;;;;;;5016676;28;20438;-67
2022/01/17 11:18:25;;;;;;;9.60;8.60;;;5.90;99.90;;;;;;5016933;28;20461;-67
2022/01/17 11:20:55;;;;;;;9.93;8.93;;;5.90;99.90;;;;;;5016624;28;20519;-67
2022/01/17 11:23:22;;;;;;;12.30;9.80;;;5.90;99.90;;;;;;5016542;28;20461;-68
2022/01/17 11:25:52;;;;;;;9.97;8.67;;;6.00;99.90;;;;;;5016409;28;20981;-66
2022/01/17 11:28:23;;;;;;;10.23;8.60;;;6.00;99.90;;;;;;5016288;28;20444;-67
2022/01/17 11:30:52;;;;;;;8.50;7.60;;;6.00;99.90;;;;;;5017195;28;20469;-67
2022/01/17 11:33:19;;;;;;;8.37;7.70;;;6.00;99.90;;;;;;5015936;28;20458;-67
2022/01/17 11:35:51;;;;;;;9.00;8.20;;;6.00;99.90;;;;;;5015917;28;20970;-67
2022/01/17 11:38:21;;;;;;;9.53;8.60;;;6.00;99.90;;;;;;5016012;28;20445;-67
2022/01/17 11:40:49;;;;;;;8.80;8.00;;;6.10;99.90;;;;;;5015944;28;20481;-67
2022/01/17 11:43:21;;;;;;;8.47;7.67;;;6.10;99.90;;;;;;5015988;28;20475;-67
2022/01/17 11:45:48;;;;;;;7.57;6.87;;;6.20;99.90;;;;;;5016201;28;20445;-67
2022/01/17 11:48:22;;;;;;;7.73;7.13;;;6.10;99.90;;;;;;5017057;28;20460;-67
2022/01/17 11:50:50;;;;;;;7.70;7.00;;;6.10;99.90;;;;;;5015788;28;20496;-67
2022/01/17 11:53:42;;;;;;;8.03;7.30;;;6.10;99.90;;;;;;5016155;28;20552;-67
2022/01/17 11:56:09;;;;;;;7.87;7.17;;;6.20;99.90;;;;;;5018756;28;20442;-67
2022/01/17 11:58:42;;;;;;;8.70;7.90;;;6.20;99.90;;;;;;5017731;28;20457;-67
2022/01/17 12:01:11;;;;;;;8.43;7.67;;;6.20;99.90;;;;;;5016934;28;20485;-67
2022/01/17 12:03:41;;;;;;;7.73;7.03;;;6.30;99.90;;;;;;5016813;28;20449;-67
2022/01/17 12:06:23;;;;;;;7.97;7.20;;;6.30;99.90;;;;;;5016455;28;20453;-67
2022/01/17 12:08:52;;;;;;;9.53;7.10;;;6.30;99.90;;;;;;5016675;28;20453;-67
2022/01/17 12:11:31;;;;;;;7.73;7.07;;;6.40;99.90;;;;;;5016603;28;20480;-67
2022/01/17 12:14:29;;;;;;;7.97;7.27;;;6.40;99.90;;;;;;5016720;28;20442;-67
2022/01/17 12:17:27;;;;;;;11.40;7.53;;;6.30;99.90;;;;;;5015804;28;20449;-67
2022/01/17 12:20:17;;;;;;;7.83;7.03;;;6.40;99.90;;;;;;5016112;28;20538;-67
2022/01/17 12:22:56;;;;;;;8.43;7.57;;;6.40;99.90;;;;;;5016921;28;20937;-67
2022/01/17 12:25:35;;;;;;;8.87;8.07;;;6.50;99.90;;;;;;5017582;28;20789;-68
2022/01/17 12:28:25;;;;;;;9.07;8.20;;;6.50;99.90;;;;;;5015986;28;20448;-67
2022/01/17 12:30:56;;;;;;;10.23;8.33;;;6.60;99.90;;;;;;5017525;28;20473;-67
2022/01/17 12:33:37;;;;;;;9.07;8.27;;;6.60;99.90;;;;;;5017432;28;20441;-68
2022/01/17 12:36:07;;;;;;;7.63;6.83;;;6.70;99.90;;;;;;5016708;28;20441;-67
2022/01/17 12:38:37;;;;;;;9.50;8.53;;;6.70;99.90;;;;;;5016856;28;20454;-68
2022/01/17 12:41:04;;;;;;;8.70;7.80;;;6.70;99.90;;;;;;5015991;28;21007;-67
2022/01/17 12:43:33;;;;;;;10.67;8.67;;;6.90;99.90;;;;;;5016542;28;20813;-68
2022/01/17 12:46:03;;;;;;;8.80;7.97;;;6.90;99.90;;;;;;5015615;28;20457;-67
2022/01/17 12:48:32;;;;;;;9.27;7.80;;;7.00;99.90;;;;;;5016096;28;20777;-67
2022/01/17 12:51:03;;;;;;;9.37;8.37;;;7.00;99.90;;;;;;5014900;28;20470;-67
2022/01/17 12:53:30;;;;;;;10.60;8.63;;;7.10;99.90;;;;;;5014907;28;20811;-67
2022/01/17 12:55:59;;;;;;;9.00;8.20;;;7.10;99.90;;;;;;5014502;28;20971;-67
2022/01/17 12:58:27;;;;;;;8.60;7.80;;;7.10;99.90;;;;;;5013967;28;20477;-67
2022/01/17 13:00:56;;;;;;;10.97;8.80;;;7.10;99.90;;;;;;5014615;28;20873;-68
2022/01/17 13:03:26;;;;;;;7.93;7.13;;;7.00;99.90;;;;;;5014831;28;20444;-68
2022/01/17 13:05:54;;;;;;;10.63;8.07;;;7.00;99.90;;;;;;5014426;28;20941;-68
2022/01/17 13:08:21;;;;;;;9.03;8.23;;;6.90;99.90;;;;;;5014748;28;20454;-68
2022/01/17 13:10:48;;;;;;;11.87;8.70;;;6.90;99.90;;;;;;5014503;28;20475;-67
2022/01/17 13:13:17;;;;;;;9.73;8.73;;;6.90;99.90;;;;;;5014291;28;20821;-68
2022/01/17 13:15:55;;;;;;;9.40;7.67;;;6.80;99.90;;;;;;5014695;28;20453;-67
2022/01/17 13:18:22;;;;;;;9.47;8.43;;;6.90;99.90;;;;;;5014287;28;20453;-68
2022/01/17 13:20:50;;;;;;;8.70;7.90;;;6.90;99.90;;;;;;5015298;28;20481;-67
2022/01/17 13:23:25;;;;;;;8.30;7.57;;;6.60;99.90;;;;;;5014814;28;20465;-66
2022/01/17 13:25:52;;;;;;;10.63;9.60;;;6.60;99.90;;;;;;5014742;28;20499;-67
2022/01/17 13:28:18;;;;;;;9.00;7.87;;;6.60;99.90;;;;;;5014167;28;20814;-67
2022/01/17 13:30:46;;;;;;;9.43;8.43;;;6.70;99.90;;;;;;5014759;28;20476;-67
2022/01/17 13:33:12;;;;;;;9.57;8.33;;;6.70;99.90;;;;;;5014529;28;20460;-67
2022/01/17 13:35:43;;;;;;;8.50;7.60;;;6.80;99.90;;;;;;5014598;28;20458;-67
2022/01/17 13:38:18;;;;;;;8.33;7.50;;;6.90;99.90;;;;;;5021765;28;20465;-67
2022/01/17 13:40:45;;;;;;;9.70;8.13;;;7.00;99.90;;;;;;5031472;28;20481;-68
2022/01/17 13:43:12;;;;;;;9.43;7.77;;;6.90;99.90;;;;;;5020212;28;20567;-67
2022/01/17 13:45:41;;;;;;;9.00;7.63;;;6.80;99.90;;;;;;5014239;28;20476;-67
2022/01/17 13:48:12;;;;;;;8.63;7.70;;;6.80;99.90;;;;;;5013797;28;20457;-67
2022/01/17 13:50:44;;;;;;;8.60;7.07;;;6.80;99.90;;;;;;5014073;28;20979;-67
2022/01/17 13:53:12;;;;;;;7.93;7.03;;;6.80;99.90;;;;;;5013834;28;20810;-68
2022/01/17 13:55:41;;;;;;;7.73;6.97;;;6.70;99.90;;;;;;5014024;28;20460;-68
2022/01/17 13:58:10;;;;;;;8.27;7.40;;;6.70;99.90;;;;;;5014137;28;20517;-68
2022/01/17 14:00:41;;;;;;;10.60;7.37;;;6.70;99.90;;;;;;5014101;28;20503;-67
2022/01/17 14:03:09;;;;;;;8.07;7.27;;;6.70;99.90;;;;;;5014335;28;20442;-67
2022/01/17 14:05:38;;;;;;;6.93;6.30;;;6.70;99.90;;;;;;5014132;28;20456;-68
2022/01/17 14:08:21;;;;;;;6.93;6.30;;;6.70;99.90;;;;;;5013865;28;20453;-68
2022/01/17 14:10:58;;;;;;;6.67;5.97;;;6.70;99.90;;;;;;5018175;28;20544;-68
2022/01/17 14:13:26;;;;;;;6.30;5.63;;;6.60;99.90;;;;;;5018787;28;20755;-67
2022/01/17 14:15:54;;;;;;;5.97;5.43;;;6.70;99.90;;;;;;5018155;28;20450;-67
2022/01/17 14:18:21;;;;;;;5.90;5.30;;;6.60;99.90;;;;;;5017257;28;20453;-67
2022/01/17 14:20:53;;;;;;;5.97;5.47;;;6.70;99.90;;;;;;5017260;28;20480;-67
2022/01/17 14:23:34;;;;;;;6.73;6.03;;;6.80;99.90;;;;;;5017402;28;20450;-67
2022/01/17 14:26:01;;;;;;;5.40;4.90;;;6.80;99.90;;;;;;5017643;28;20538;-68
2022/01/17 14:28:31;;;;;;;8.10;5.80;;;6.80;99.90;;;;;;5017350;28;20473;-67
2022/01/17 14:30:58;;;;;;;5.90;5.30;;;6.70;99.90;;;;;;5017191;28;20517;-67
2022/01/17 14:33:28;;;;;;;6.80;5.67;;;6.70;99.90;;;;;;5017445;28;20464;-67
2022/01/17 14:36:06;;;;;;;6.90;5.70;;;6.70;99.90;;;;;;5017209;28;20552;-66
2022/01/17 14:38:41;;;;;;;6.47;5.87;;;6.80;99.90;;;;;;5017349;28;20464;-67
2022/01/17 14:41:08;;;;;;;6.93;6.23;;;6.80;99.90;;;;;;5017587;28;20538;-68
2022/01/17 14:43:36;;;;;;;7.80;6.57;;;6.70;99.90;;;;;;5017259;28;20936;-68
2022/01/17 14:46:05;;;;;;;7.40;6.37;;;6.60;99.90;;;;;;5017257;28;20552;-67
2022/01/17 14:48:36;;;;;;;8.93;6.47;;;6.60;99.90;;;;;;5017417;28;20471;-67
2022/01/17 14:51:19;;;;;;;8.43;7.10;;;6.60;99.90;;;;;;5017255;28;20515;-68
2022/01/17 14:53:50;;;;;;;7.53;6.20;;;6.60;99.90;;;;;;5017413;28;20437;-67
2022/01/17 15:01:52;;;;;;;7.40;6.80;;;6.30;99.90;;;;;;5018464;28;20480;-68
2022/01/17 15:04:19;;;;;;;7.20;6.50;;;6.30;99.90;;;;;;5019710;28;20441;-68
2022/01/17 15:06:46;;;;;;;8.03;7.33;;;6.30;99.90;;;;;;5018468;28;20464;-68
2022/01/17 15:09:14;;;;;;;8.90;8.10;;;6.20;99.90;;;;;;5019417;28;20453;-68
2022/01/17 15:11:41;;;;;;;7.90;7.30;;;6.10;99.90;;;;;;5018107;28;20845;-68
2022/01/17 15:14:08;;;;;;;8.77;7.90;;;6.10;99.90;;;;;;5018371;28;20469;-68
2022/01/17 15:16:37;;;;;;;7.50;6.90;;;6.10;99.90;;;;;;5020875;28;20433;-68
2022/01/17 15:19:05;;;;;;;8.07;7.37;;;6.10;99.90;;;;;;5018451;28;20779;-68
2022/01/17 15:21:31;;;;;;;8.50;7.80;;;6.10;99.90;;;;;;5016814;28;20841;-68
2022/01/17 15:23:59;;;;;;;7.40;6.73;;;6.10;99.90;;;;;;5018684;28;20443;-67
2022/01/17 15:26:27;;;;;;;8.03;7.33;;;6.10;99.90;;;;;;5019206;28;20492;-68
2022/01/17 15:28:54;;;;;;;8.20;7.50;;;6.10;99.90;;;;;;5017763;28;20461;-68
2022/01/17 15:31:21;;;;;;;9.17;8.27;;;6.10;99.90;;;;;;5017102;28;20477;-68
2022/01/17 15:33:48;;;;;;;9.13;7.80;;;6.00;99.90;;;;;;5016843;28;20813;-68
2022/01/17 15:36:16;;;;;;;8.80;8.00;;;6.00;99.90;;;;;;5016529;28;20454;-68
2022/01/17 15:38:44;;;;;;;9.53;8.63;;;6.00;99.90;;;;;;5016747;28;20485;-68
2022/01/17 15:41:14;;;;;;;8.60;7.80;;;6.00;99.90;;;;;;5016792;28;20473;-68
2022/01/17 15:43:43;;;;;;;9.53;8.67;;;6.00;99.90;;;;;;5016888;28;20446;-68
2022/01/17 15:46:10;;;;;;;10.67;9.67;;;6.00;99.90;;;;;;5016479;28;20457;-68
2022/01/17 15:48:37;;;;;;;9.57;8.67;;;6.00;99.90;;;;;;5016410;28;20449;-68
2022/01/17 15:51:04;;;;;;;11.27;10.07;;;6.00;99.90;;;;;;5017561;28;20580;-67
2022/01/17 15:53:31;;;;;;;9.60;8.60;;;6.00;99.90;;;;;;5016790;28;20503;-68
2022/01/17 15:55:58;;;;;;;10.40;9.30;;;6.00;99.90;;;;;;5016317;28;20453;-68
2022/01/17 15:58:25;;;;;;;11.40;10.27;;;5.90;99.90;;;;;;5016280;28;20453;-68
2022/01/17 16:00:53;;;;;;;10.73;9.63;;;5.90;99.90;;;;;;5016098;28;20503;-68
2022/01/17 16:03:20;;;;;;;11.03;9.50;;;5.90;99.90;;;;;;5016477;28;20489;-68
2022/01/17 16:05:47;;;;;;;12.37;11.03;;;5.90;99.90;;;;;;5016028;28;20445;-68
2022/01/17 16:08:15;;;;;;;10.53;9.43;;;5.90;99.90;;;;;;5015426;28;20457;-73
2022/01/17 16:10:46;;;;;;;12.17;10.00;;;5.90;99.90;;;;;;5016559;28;20477;-68
2022/01/17 16:13:13;;;;;;;12.40;10.23;;;5.80;99.90;;;;;;5015804;28;20508;-67
2022/01/17 16:15:40;;;;;;;12.20;11.00;;;5.80;99.90;;;;;;5015251;28;20453;-67
2022/01/17 16:18:09;;;;;;;14.33;11.60;;;5.80;99.90;;;;;;5015558;28;20464;-67
2022/01/17 16:20:36;;;;;;;12.47;10.90;;;5.80;99.90;;;;;;5016524;28;20453;-66
2022/01/17 16:23:02;;;;;;;15.63;12.03;;;5.80;99.90;;;;;;5017595;28;20480;-68
2022/01/17 16:25:30;;;;;;;13.90;11.47;;;5.70;99.90;;;;;;5019601;28;20457;-67
2022/01/17 16:28:00;;;;;;;12.87;11.33;;;5.70;99.90;;;;;;5015325;28;20492;-67
2022/01/17 16:30:27;;;;;;;13.20;11.90;;;5.80;99.90;;;;;;5015873;28;20536;-67
2022/01/17 16:32:54;;;;;;;15.07;11.43;;;5.80;99.90;;;;;;5014811;28;20940;-67
2022/01/17 16:35:22;;;;;;;12.97;11.57;;;5.70;99.90;;;;;;5015620;28;20464;-67
2022/01/17 16:37:49;;;;;;;12.70;11.27;;;5.70;99.90;;;;;;5015494;28;20484;-67
2022/01/17 16:40:16;;;;;;;13.40;11.93;;;5.70;99.90;;;;;;5015519;28;20461;-67
2022/01/17 16:42:43;;;;;;;12.87;11.47;;;5.60;99.90;;;;;;5015047;28;20485;-67
2022/01/17 16:45:11;;;;;;;14.03;12.40;;;5.60;99.90;;;;;;5015176;28;20460;-66
2022/01/17 16:47:40;;;;;;;14.73;11.50;;;5.60;99.90;;;;;;5015222;28;20445;-67
2022/01/17 16:50:08;;;;;;;13.83;11.30;;;5.50;99.90;;;;;;5014928;28;20839;-67
2022/01/17 16:52:36;;;;;;;13.40;11.47;;;5.50;99.90;;;;;;5014946;28;20482;-67
2022/01/17 16:55:05;;;;;;;15.50;12.33;;;5.50;99.90;;;;;;5015117;28;20477;-66
2022/01/17 16:57:32;;;;;;;14.53;12.40;;;5.50;99.90;;;;;;5014744;28;20454;-66
2022/01/17 16:59:59;;;;;;;15.53;12.10;;;5.60;99.90;;;;;;5015338;28;20469;-66
2022/01/17 17:02:26;;;;;;;16.17;13.53;;;5.50;99.90;;;;;;5014838;28;21012;-66
2022/01/17 17:04:53;;;;;;;18.87;13.20;;;5.50;99.90;;;;;;5014909;28;20457;-66
2022/01/17 17:07:19;;;;;;;15.17;13.13;;;5.50;99.90;;;;;;5014788;28;20453;-67
2022/01/17 17:09:47;;;;;;;15.60;13.03;;;5.50;99.90;;;;;;5014840;28;20449;-66
2022/01/17 17:12:14;;;;;;;28.43;21.10;;;5.50;99.90;;;;;;5014246;28;20879;-67
2022/01/17 17:14:41;;;;;;;23.80;17.30;;;5.50;99.90;;;;;;5014955;28;20464;-66
2022/01/17 17:17:08;;;;;;;21.80;16.40;;;5.40;99.90;;;;;;5014707;28;20465;-66
2022/01/17 17:19:34;;;;;;;19.10;15.33;;;5.40;99.90;;;;;;5014714;28;20438;-66
2022/01/17 17:22:01;;;;;;;20.80;15.70;;;5.50;99.90;;;;;;5014298;28;20489;-66
2022/01/17 17:24:28;;;;;;;21.93;16.20;;;5.40;99.90;;;;;;5014447;28;20453;-66
2022/01/17 17:26:56;;;;;;;17.93;14.50;;;5.40;99.90;;;;;;5015908;28;20473;-66
2022/01/17 17:29:23;;;;;;;20.37;15.80;;;5.40;99.90;;;;;;5014903;28;20453;-66
2022/01/17 17:31:50;;;;;;;33.77;21.87;;;5.40;99.90;;;;;;5014781;28;20473;-67
2022/01/17 17:34:17;;;;;;;22.50;16.93;;;5.30;99.90;;;;;;5016043;28;20463;-66
2022/01/17 17:36:44;;;;;;;17.27;14.33;;;5.30;99.90;;;;;;5014905;28;20464;-66
2022/01/17 17:39:13;;;;;;;19.10;15.57;;;5.30;99.90;;;;;;5014493;28;20453;-66
2022/01/17 17:41:41;;;;;;;21.17;16.73;;;5.20;99.90;;;;;;5013866;28;20484;-66
2022/01/17 17:44:09;;;;;;;20.70;17.07;;;5.30;99.90;;;;;;5015643;28;20522;-66
2022/01/17 17:46:37;;;;;;;28.20;19.67;;;5.30;99.90;;;;;;5018180;28;20460;-66
2022/01/17 17:49:04;;;;;;;18.10;15.30;;;5.30;99.90;;;;;;5018181;28;20460;-65
2022/01/17 17:51:31;;;;;;;22.87;15.40;;;5.30;99.90;;;;;;5018120;28;20480;-66
2022/01/17 17:53:58;;;;;;;19.53;15.77;;;5.30;99.90;;;;;;5018351;28;20460;-65
2022/01/17 17:56:25;;;;;;;20.23;15.03;;;5.30;99.90;;;;;;5022620;28;20492;-65
2022/01/17 17:58:51;;;;;;;22.20;15.70;;;5.30;99.90;;;;;;5032030;28;20449;-65
2022/01/17 18:01:20;;;;;;;20.17;15.43;;;5.30;99.90;;;;;;5020390;28;20472;-65
2022/01/17 18:03:47;;;;;;;18.83;15.90;;;5.30;99.90;;;;;;5019352;28;20480;-66
2022/01/17 18:06:13;;;;;;;26.20;15.93;;;5.30;99.90;;;;;;5017479;28;20463;-66
2022/01/17 18:08:40;;;;;;;19.00;15.47;;;5.30;99.90;;;;;;5017522;28;20464;-66
2022/01/17 18:11:07;;;;;;;19.63;15.10;;;5.30;99.90;;;;;;5017836;28;20474;-66